createdAt,value
2019-01-13T00:41:57.121Z,99248.59
2019-01-13T00:45:04.268Z,99246.21
2019-01-13T00:48:12.680Z,99243.48
2019-01-13T00:51:27.991Z,99246.53
2019-01-13T00:54:23.371Z,99240.27
2019-01-13T03:41:35.978Z,99082.28
2019-01-13T04:25:32.052Z,99108.52
2019-01-13T04:44:17.632Z,99122.77
2019-01-13T05:00:25.764Z,99127.38
2019-01-13T05:20:43.557Z,99135.56
2019-01-13T07:07:17.528Z,99135.80
2019-01-13T07:10:23.431Z,99132.45
2019-01-13T07:13:14.915Z,99138.06
2019-01-13T07:16:19.345Z,99125.37
2019-01-13T07:19:08.585Z,99131.16
2019-01-13T07:22:14.884Z,99127.16
2019-01-13T07:25:04.003Z,99136.01
2019-01-13T07:28:08.680Z,99133.67
2019-01-13T07:30:56.394Z,99125.55
2019-01-13T07:34:04.780Z,99122.22
2019-01-13T07:36:52.632Z,99123.00
2019-01-13T07:39:59.018Z,99115.20
2019-01-13T07:42:47.139Z,99115.41
2019-01-13T07:45:55.017Z,99111.45
2019-01-13T07:51:50.852Z,99111.30
2019-01-13T07:54:55.600Z,99103.15
2019-01-13T07:57:43.831Z,99105.33
2019-01-13T08:00:48.450Z,99096.33
2019-01-13T08:03:36.444Z,99096.66
2019-01-13T08:06:44.112Z,99095.20
2019-01-13T08:09:32.020Z,99095.02
2019-01-13T08:12:39.993Z,99091.38
2019-01-13T08:15:27.906Z,99091.42
2019-01-13T08:18:33.892Z,99078.66
2019-01-13T08:21:22.976Z,99077.89
2019-01-13T08:24:29.098Z,99074.44
2019-01-13T08:27:23.358Z,99060.73
2019-01-13T08:30:30.580Z,99066.88
2019-01-13T08:33:20.077Z,99067.44
2019-01-13T08:36:25.787Z,99063.94
2019-01-13T08:39:14.061Z,99048.24
2019-01-13T08:42:19.321Z,99050.61
2019-01-13T08:45:10.514Z,99047.58
2019-01-13T08:48:15.950Z,99044.40
2019-01-13T08:51:05.106Z,99042.38
2019-01-13T08:54:09.522Z,99036.49
2019-01-13T08:56:57.627Z,99033.36
2019-01-13T09:00:02.334Z,99030.05
2019-01-13T09:02:50.597Z,99034.22
2019-01-13T09:05:55.035Z,99025.91
2019-01-13T09:08:44.536Z,99032.31
2019-01-13T09:11:49.620Z,99026.81
2019-01-13T09:14:38.891Z,99012.47
2019-01-13T09:17:44.031Z,99010.78
2019-01-13T09:20:51.860Z,99003.60
2019-01-13T09:23:40.232Z,98998.38
2019-01-13T09:26:50.777Z,98985.73
2019-01-13T09:29:34.543Z,98977.91
2019-01-13T09:32:39.711Z,98976.29
2019-01-13T09:35:28.151Z,98962.77
2019-01-13T09:38:32.954Z,98950.64
2019-01-13T09:41:20.691Z,98949.31
2019-01-13T09:44:28.327Z,98942.91
2019-01-13T09:47:16.039Z,98929.52
2019-01-13T09:50:20.384Z,98915.31
2019-01-13T09:53:11.227Z,98915.31
2019-01-13T09:56:15.901Z,98913.33
2019-01-13T09:59:03.937Z,98917.73
2019-01-13T10:02:08.520Z,98906.57
2019-01-13T10:04:56.638Z,98898.88
2019-01-13T10:08:01.468Z,98899.22
2019-01-13T10:10:49.337Z,98892.03
2019-01-13T10:13:54.146Z,98880.92
2019-01-13T10:16:42.179Z,98875.48
2019-01-13T10:19:46.830Z,98869.40
2019-01-13T10:22:34.915Z,98872.23
2019-01-13T10:25:39.688Z,98869.77
2019-01-13T10:28:27.532Z,98857.86
2019-01-13T10:31:32.198Z,98857.61
2019-01-13T10:34:37.073Z,98848.49
2019-01-13T10:37:24.936Z,98835.97
2019-01-13T10:40:29.798Z,98834.89
2019-01-13T10:43:17.860Z,98817.22
2019-01-13T10:46:22.627Z,98824.00
2019-01-13T10:49:10.447Z,98824.00
2019-01-13T10:52:15.451Z,98825.70
2019-01-13T10:55:03.555Z,98825.02
2019-01-13T10:58:08.270Z,98829.22
2019-01-13T11:00:56.031Z,98829.78
2019-01-13T11:04:00.692Z,98829.78
2019-01-13T11:06:48.717Z,98825.95
2019-01-13T11:09:53.392Z,98819.81
2019-01-13T11:12:41.427Z,98821.06
2019-01-13T11:15:45.918Z,98817.82
2019-01-13T11:18:33.783Z,98820.35
2019-01-13T11:21:38.495Z,98806.95
2019-01-13T11:24:26.283Z,98804.55
2019-01-13T11:27:48.759Z,98800.34
2019-01-13T11:30:36.946Z,98800.34
2019-01-13T11:33:41.739Z,98794.13
2019-01-13T11:36:29.955Z,98793.38
2019-01-13T11:39:34.707Z,98803.48
2019-01-13T11:42:22.690Z,98796.48
2019-01-13T11:45:27.632Z,98795.06
2019-01-13T11:48:15.515Z,98794.84
2019-01-13T11:51:20.292Z,98793.92
2019-01-13T11:54:08.138Z,98788.86
2019-01-13T11:57:12.567Z,98770.69
2019-01-13T12:00:17.480Z,98775.69
2019-01-13T12:03:06.898Z,98771.83
2019-01-13T12:06:11.806Z,98757.25
2019-01-13T12:09:00.039Z,98753.31
2019-01-13T12:12:07.230Z,98753.80
2019-01-13T12:14:54.914Z,98762.53
2019-01-13T12:17:59.322Z,98750.37
2019-01-13T12:20:47.435Z,98756.59
2019-01-13T12:23:52.108Z,98742.47
2019-01-13T12:26:40.213Z,98732.25
2019-01-13T12:29:44.913Z,98723.09
2019-01-13T12:32:32.941Z,98720.92
2019-01-13T12:35:37.800Z,98710.67
2019-01-13T12:38:25.539Z,98706.09
2019-01-13T12:41:30.263Z,98703.20
2019-01-13T12:44:17.976Z,98698.84
2019-01-13T12:50:23.663Z,98700.98
2019-01-13T12:53:28.207Z,98701.09
2019-01-13T12:56:16.322Z,98692.09
2019-01-13T12:59:21.313Z,98687.02
2019-01-13T13:02:09.169Z,98689.70
2019-01-13T13:05:16.802Z,98680.25
2019-01-13T13:08:04.999Z,98683.28
2019-01-13T13:11:10.018Z,98665.88
2019-01-13T13:13:58.078Z,98668.88
2019-01-13T13:17:02.727Z,98670.06
2019-01-13T13:19:50.902Z,98679.83
2019-01-13T13:22:55.819Z,98676.24
2019-01-13T13:25:43.604Z,98672.66
2019-01-13T13:28:48.445Z,98672.59
2019-01-13T13:31:36.311Z,98666.02
2019-01-13T13:34:41.249Z,98663.16
2019-01-13T13:37:29.344Z,98666.89
2019-01-13T13:40:34.116Z,98662.09
2019-01-13T13:43:21.913Z,98658.09
2019-01-13T13:46:26.440Z,98660.79
2019-01-13T13:49:17.354Z,98664.14
2019-01-13T13:52:22.029Z,98661.41
2019-01-13T13:55:09.987Z,98664.94
2019-01-13T13:58:14.466Z,98661.61
2019-01-13T14:01:02.410Z,98662.25
2019-01-13T14:04:07.345Z,98654.70
2019-01-13T14:06:55.617Z,98654.07
2019-01-13T14:10:00.103Z,98659.09
2019-01-13T14:12:52.130Z,98666.30
2019-01-13T14:15:56.814Z,98674.86
2019-01-13T14:18:47.787Z,98681.46
2019-01-13T14:21:55.818Z,98686.27
2019-01-13T14:24:44.205Z,98685.69
2019-01-13T14:27:49.193Z,98677.61
2019-01-13T14:30:54.255Z,98684.70
2019-01-13T14:33:41.926Z,98679.12
2019-01-13T14:36:46.588Z,98686.02
2019-01-13T14:39:34.737Z,98681.48
2019-01-13T14:42:40.881Z,98684.38
2019-01-13T14:45:30.180Z,98677.75
2019-01-13T14:48:36.777Z,98677.31
2019-01-13T14:51:24.706Z,98685.14
2019-01-13T14:54:29.205Z,98682.93
2019-01-13T14:57:17.038Z,98681.83
2019-01-13T15:00:23.401Z,98681.48
2019-01-13T15:03:11.295Z,98671.62
2019-01-13T15:06:16.187Z,98683.09
2019-01-13T15:09:07.083Z,98681.91
2019-01-13T15:12:11.627Z,98680.49
2019-01-13T15:14:59.458Z,98675.73
2019-01-13T15:18:04.446Z,98677.86
2019-01-13T15:20:52.755Z,98684.70
2019-01-13T15:23:57.276Z,98688.00
2019-01-13T15:26:47.594Z,98681.63
2019-01-13T15:29:52.236Z,98687.52
2019-01-13T15:35:52.582Z,98677.61
2019-01-13T15:38:57.001Z,98677.88
2019-01-13T15:41:45.997Z,98686.45
2019-01-13T15:44:50.689Z,98686.72
2019-01-13T15:47:41.966Z,98686.50
2019-01-13T15:50:46.824Z,98682.77
2019-01-13T15:53:37.126Z,98685.31
2019-01-13T15:56:41.941Z,98694.02
2019-01-13T15:59:30.042Z,98693.90
2019-01-13T16:02:34.450Z,98691.03
2019-01-13T16:05:22.291Z,98688.77
2019-01-13T16:08:27.248Z,98683.61
2019-01-13T16:11:16.644Z,98688.77
2019-01-13T16:14:21.392Z,98682.15
2019-01-13T16:17:09.569Z,98684.20
2019-01-13T16:20:14.552Z,98676.05
2019-01-13T16:26:04.920Z,98675.55
2019-01-13T16:29:09.826Z,98670.88
2019-01-13T16:31:58.104Z,98666.19
2019-01-13T16:35:03.909Z,98663.57
2019-01-13T16:38:10.221Z,98667.49
2019-01-13T16:40:59.455Z,98655.06
2019-01-13T16:44:04.033Z,98657.30
2019-01-13T16:46:52.061Z,98659.91
2019-01-13T16:49:58.157Z,98658.39
2019-01-13T16:52:46.029Z,98663.77
2019-01-13T16:55:50.636Z,98662.75
2019-01-13T16:58:39.602Z,98664.81
2019-01-13T17:01:44.304Z,98664.81
2019-01-13T17:04:32.216Z,98662.64
2019-01-13T17:07:37.820Z,98663.52
2019-01-13T17:10:26.121Z,98655.82
2019-01-13T17:13:37.012Z,98653.20
2019-01-13T17:16:25.910Z,98653.20
2019-01-13T17:19:31.050Z,98659.77
2019-01-13T17:22:22.260Z,98658.07
2019-01-13T17:25:28.332Z,98657.70
2019-01-13T17:28:16.541Z,98652.28
2019-01-13T17:31:21.827Z,98651.44
2019-01-13T17:37:15.151Z,98653.98
2019-01-13T17:40:21.244Z,98655.31
2019-01-13T17:43:10.610Z,98653.13
2019-01-13T17:46:18.210Z,98644.55
2019-01-13T17:49:06.461Z,98649.30
2019-01-13T17:52:12.754Z,98638.54
2019-01-13T17:55:01.071Z,98635.14
2019-01-13T17:58:11.698Z,98633.48
2019-01-13T18:01:02.423Z,98639.09
2019-01-13T18:04:06.809Z,98638.27
2019-01-13T18:06:55.930Z,98644.66
2019-01-13T18:10:00.902Z,98646.31
2019-01-13T18:13:05.762Z,98646.42
2019-01-13T18:15:53.983Z,98647.34
2019-01-13T18:18:58.841Z,98650.33
2019-01-13T18:21:48.139Z,98656.56
2019-01-13T18:25:01.654Z,98650.48
2019-01-13T18:28:09.354Z,98658.82
2019-01-13T18:31:03.719Z,98657.37
2019-01-13T18:34:09.668Z,98653.31
2019-01-13T18:37:10.692Z,98653.20
2019-01-13T18:40:15.556Z,98648.81
2019-01-13T18:43:06.947Z,98640.38
2019-01-13T18:46:11.662Z,98642.47
2019-01-13T18:49:19.491Z,98646.67
2019-01-13T18:52:07.664Z,98639.80
2019-01-13T18:55:12.516Z,98645.39
2019-01-13T18:58:04.721Z,98642.40
2019-01-13T19:01:09.792Z,98644.00
2019-01-13T19:03:57.998Z,98645.34
2019-01-13T19:07:06.599Z,98643.95
2019-01-13T19:09:54.598Z,98642.48
2019-01-13T19:13:01.114Z,98647.64
2019-01-13T19:15:49.386Z,98643.73
2019-01-13T19:19:00.330Z,98640.78
2019-01-13T19:21:49.701Z,98647.23
2019-01-13T19:24:57.692Z,98639.09
2019-01-13T19:27:46.008Z,98637.80
2019-01-13T19:30:50.728Z,98636.88
2019-01-13T19:34:01.433Z,98637.89
2019-01-13T19:36:49.589Z,98626.85
2019-01-13T19:39:54.311Z,98627.77
2019-01-13T19:42:42.466Z,98630.31
2019-01-13T19:45:50.202Z,98626.50
2019-01-13T19:48:55.757Z,98626.44
2019-01-13T19:52:00.568Z,98620.94
2019-01-13T19:54:51.617Z,98620.09
2019-01-13T19:58:03.266Z,98618.02
2019-01-13T20:00:51.307Z,98606.45
2019-01-13T20:03:59.315Z,98603.37
2019-01-13T20:06:47.329Z,98606.80
2019-01-13T20:09:52.063Z,98606.44
2019-01-13T20:12:57.972Z,98603.28
2019-01-13T20:15:47.290Z,98602.08
2019-01-13T20:18:56.375Z,98593.41
2019-01-13T20:21:44.301Z,98590.11
2019-01-13T20:24:49.179Z,98584.98
2019-01-13T20:27:37.146Z,98576.73
2019-01-13T20:30:41.928Z,98573.28
2019-01-13T20:33:48.121Z,98572.77
2019-01-13T20:36:52.985Z,98563.22
2019-01-13T20:39:43.181Z,98562.75
2019-01-13T20:42:48.450Z,98548.13
2019-01-13T20:45:37.958Z,98553.34
2019-01-13T20:48:42.825Z,98555.52
2019-01-13T20:51:30.572Z,98555.38
2019-01-13T20:54:36.609Z,98549.12
2019-01-13T20:57:24.567Z,98545.57
2019-01-13T21:00:36.533Z,98545.13
2019-01-13T21:03:24.523Z,98547.67
2019-01-13T21:06:33.574Z,98548.89
2019-01-13T21:09:21.400Z,98535.48
2019-01-13T21:12:32.695Z,98540.34
2019-01-13T21:15:20.701Z,98531.55
2019-01-13T21:18:26.583Z,98525.79
2019-01-13T21:21:14.800Z,98516.89
2019-01-13T21:24:20.788Z,98516.03
2019-01-13T21:27:08.636Z,98510.11
2019-01-13T21:30:19.472Z,98507.62
2019-01-13T21:33:07.434Z,98506.09
2019-01-13T21:36:12.477Z,98507.73
2019-01-13T21:39:00.997Z,98493.35
2019-01-13T21:42:05.815Z,98487.78
2019-01-13T21:44:53.589Z,98493.31
2019-01-13T21:50:59.640Z,98475.26
2019-01-13T21:54:10.930Z,98463.98
2019-01-13T21:57:00.852Z,98462.89
2019-01-13T22:00:09.908Z,98461.19
2019-01-13T22:02:58.242Z,98456.57
2019-01-13T22:06:03.567Z,98445.83
2019-01-13T22:08:56.075Z,98442.05
2019-01-13T22:12:00.723Z,98437.45
2019-01-13T22:14:48.852Z,98439.17
2019-01-13T22:17:56.734Z,98433.54
2019-01-13T22:20:44.678Z,98424.16
2019-01-13T22:23:50.892Z,98417.90
2019-01-13T22:26:38.993Z,98411.45
2019-01-13T22:29:43.694Z,98401.27
2019-01-13T22:32:34.693Z,98393.63
2019-01-13T22:35:58.185Z,98393.58
2019-01-13T22:38:28.593Z,98387.14
2019-01-13T22:41:05.710Z,98386.73
2019-01-13T22:43:41.817Z,98386.77
2019-01-13T22:46:18.817Z,98385.95
2019-01-13T22:48:49.205Z,98383.38
2019-01-13T22:51:26.811Z,98384.67
2019-01-13T22:53:59.744Z,98379.98
2019-01-13T22:56:35.548Z,98385.52
2019-01-13T22:59:22.177Z,98382.48
2019-01-13T23:02:18.142Z,98386.70
2019-01-13T23:04:48.523Z,98383.70
2019-01-13T23:07:25.153Z,98381.55
2019-01-13T23:09:55.552Z,98382.38
2019-01-13T23:15:29.521Z,98375.02
2019-01-13T23:18:06.345Z,98376.20
